sensor_id;sensor_type;location;lat;lon;timestamp;temperature;humidity
47310;DHT22;33046;52.270;6.832;2023-04-19T00:01:25;12.70;92.90
47310;DHT22;33046;52.270;6.832;2023-04-19T00:03:32;12.70;92.90
47310;DHT22;33046;52.270;6.832;2023-04-19T00:05:39;12.70;93.00
47310;DHT22;33046;52.270;6.832;2023-04-19T00:07:45;12.70;93.00
47310;DHT22;33046;52.270;6.832;2023-04-19T00:09:52;12.80;93.00
47310;DHT22;33046;52.270;6.832;2023-04-19T00:11:59;12.70;93.10
47310;DHT22;33046;52.270;6.832;2023-04-19T00:14:07;12.80;93.00
47310;DHT22;33046;52.270;6.832;2023-04-19T00:16:15;12.80;92.90
47310;DHT22;33046;52.270;6.832;2023-04-19T00:18:21;12.80;92.90
47310;DHT22;33046;52.270;6.832;2023-04-19T00:20:28;12.80;92.90
47310;DHT22;33046;52.270;6.832;2023-04-19T00:22:35;12.70;93.00
47310;DHT22;33046;52.270;6.832;2023-04-19T00:24:42;12.70;93.00
47310;DHT22;33046;52.270;6.832;2023-04-19T00:26:49;12.70;93.10
47310;DHT22;33046;52.270;6.832;2023-04-19T00:28:55;12.70;92.80
47310;DHT22;33046;52.270;6.832;2023-04-19T00:31:04;12.70;92.90
47310;DHT22;33046;52.270;6.832;2023-04-19T00:33:10;12.70;93.00
47310;DHT22;33046;52.270;6.832;2023-04-19T00:35:17;12.70;92.90
47310;DHT22;33046;52.270;6.832;2023-04-19T00:37:25;12.60;92.90
47310;DHT22;33046;52.270;6.832;2023-04-19T00:39:31;12.70;92.90
47310;DHT22;33046;52.270;6.832;2023-04-19T00:41:38;12.70;92.90
47310;DHT22;33046;52.270;6.832;2023-04-19T00:43:45;12.70;92.90
47310;DHT22;33046;52.270;6.832;2023-04-19T00:45:52;12.70;92.80
47310;DHT22;33046;52.270;6.832;2023-04-19T00:48:00;12.70;92.80
47310;DHT22;33046;52.270;6.832;2023-04-19T00:50:08;12.60;93.00
47310;DHT22;33046;52.270;6.832;2023-04-19T00:52:15;12.60;92.80
47310;DHT22;33046;52.270;6.832;2023-04-19T00:54:22;12.70;92.80
47310;DHT22;33046;52.270;6.832;2023-04-19T00:56:30;12.60;92.90
47310;DHT22;33046;52.270;6.832;2023-04-19T00:58:38;12.60;93.00
47310;DHT22;33046;52.270;6.832;2023-04-19T01:00:45;12.60;92.90
47310;DHT22;33046;52.270;6.832;2023-04-19T01:02:52;12.60;93.00
47310;DHT22;33046;52.270;6.832;2023-04-19T01:05:00;12.60;93.00
47310;DHT22;33046;52.270;6.832;2023-04-19T01:07:07;12.60;93.00
47310;DHT22;33046;52.270;6.832;2023-04-19T01:09:14;12.60;93.10
47310;DHT22;33046;52.270;6.832;2023-04-19T01:11:22;12.60;93.00
47310;DHT22;33046;52.270;6.832;2023-04-19T01:13:28;12.60;93.00
47310;DHT22;33046;52.270;6.832;2023-04-19T01:15:35;12.60;93.00
47310;DHT22;33046;52.270;6.832;2023-04-19T01:17:42;12.60;93.00
47310;DHT22;33046;52.270;6.832;2023-04-19T01:19:49;12.50;93.00
47310;DHT22;33046;52.270;6.832;2023-04-19T01:21:57;12.50;93.00
47310;DHT22;33046;52.270;6.832;2023-04-19T01:24:06;12.60;93.00
47310;DHT22;33046;52.270;6.832;2023-04-19T01:26:13;12.50;93.00
47310;DHT22;33046;52.270;6.832;2023-04-19T01:28:19;12.50;93.10
47310;DHT22;33046;52.270;6.832;2023-04-19T01:30:29;12.50;93.10
47310;DHT22;33046;52.270;6.832;2023-04-19T01:32:35;12.50;93.00
47310;DHT22;33046;52.270;6.832;2023-04-19T01:34:42;12.50;93.00
47310;DHT22;33046;52.270;6.832;2023-04-19T01:36:49;12.50;93.00
47310;DHT22;33046;52.270;6.832;2023-04-19T01:38:56;12.50;92.90
47310;DHT22;33046;52.270;6.832;2023-04-19T01:41:04;12.50;93.00
47310;DHT22;33046;52.270;6.832;2023-04-19T01:43:12;12.50;92.90
47310;DHT22;33046;52.270;6.832;2023-04-19T01:45:19;12.50;92.90
47310;DHT22;33046;52.270;6.832;2023-04-19T01:47:29;12.40;92.90
47310;DHT22;33046;52.270;6.832;2023-04-19T01:49:36;12.40;92.80
47310;DHT22;33046;52.270;6.832;2023-04-19T01:51:43;12.50;92.80
47310;DHT22;33046;52.270;6.832;2023-04-19T01:53:49;12.40;92.80
47310;DHT22;33046;52.270;6.832;2023-04-19T01:55:56;12.50;92.90
47310;DHT22;33046;52.270;6.832;2023-04-19T01:58:06;12.40;92.80
47310;DHT22;33046;52.270;6.832;2023-04-19T02:00:13;12.40;92.80
47310;DHT22;33046;52.270;6.832;2023-04-19T02:02:20;12.40;92.70
47310;DHT22;33046;52.270;6.832;2023-04-19T02:04:27;12.40;92.80
47310;DHT22;33046;52.270;6.832;2023-04-19T02:06:34;12.40;92.80
47310;DHT22;33046;52.270;6.832;2023-04-19T02:08:43;12.40;92.80
47310;DHT22;33046;52.270;6.832;2023-04-19T02:10:50;12.30;92.80
47310;DHT22;33046;52.270;6.832;2023-04-19T02:12:56;12.30;92.80
47310;DHT22;33046;52.270;6.832;2023-04-19T02:15:06;12.30;92.80
47310;DHT22;33046;52.270;6.832;2023-04-19T02:17:14;12.30;92.70
47310;DHT22;33046;52.270;6.832;2023-04-19T02:19:20;12.30;92.70
47310;DHT22;33046;52.270;6.832;2023-04-19T02:21:28;12.40;92.70
47310;DHT22;33046;52.270;6.832;2023-04-19T02:23:35;12.30;92.50
47310;DHT22;33046;52.270;6.832;2023-04-19T02:25:42;12.30;92.60
47310;DHT22;33046;52.270;6.832;2023-04-19T02:27:49;12.30;92.60
47310;DHT22;33046;52.270;6.832;2023-04-19T02:29:57;12.30;92.40
47310;DHT22;33046;52.270;6.832;2023-04-19T02:32:05;12.30;92.20
47310;DHT22;33046;52.270;6.832;2023-04-19T02:34:12;12.30;92.40
47310;DHT22;33046;52.270;6.832;2023-04-19T02:36:19;12.30;92.40
47310;DHT22;33046;52.270;6.832;2023-04-19T02:38:26;12.30;92.20
47310;DHT22;33046;52.270;6.832;2023-04-19T02:40:32;12.20;92.30
47310;DHT22;33046;52.270;6.832;2023-04-19T02:42:39;12.30;92.20
47310;DHT22;33046;52.270;6.832;2023-04-19T02:44:46;12.30;92.00
47310;DHT22;33046;52.270;6.832;2023-04-19T02:46:53;12.20;92.10
47310;DHT22;33046;52.270;6.832;2023-04-19T02:49:02;12.20;92.00
47310;DHT22;33046;52.270;6.832;2023-04-19T02:51:14;12.20;91.90
47310;DHT22;33046;52.270;6.832;2023-04-19T02:53:21;12.20;92.00
47310;DHT22;33046;52.270;6.832;2023-04-19T02:55:28;12.20;91.90
47310;DHT22;33046;52.270;6.832;2023-04-19T02:57:45;12.20;92.00
47310;DHT22;33046;52.270;6.832;2023-04-19T02:59:52;12.20;91.90
47310;DHT22;33046;52.270;6.832;2023-04-19T03:01:58;12.10;91.70
47310;DHT22;33046;52.270;6.832;2023-04-19T03:04:07;12.10;91.60
47310;DHT22;33046;52.270;6.832;2023-04-19T03:06:14;12.10;91.50
47310;DHT22;33046;52.270;6.832;2023-04-19T03:08:20;12.00;91.60
47310;DHT22;33046;52.270;6.832;2023-04-19T03:10:28;12.10;91.70
47310;DHT22;33046;52.270;6.832;2023-04-19T03:12:35;12.10;91.90
47310;DHT22;33046;52.270;6.832;2023-04-19T03:14:42;12.10;91.80
47310;DHT22;33046;52.270;6.832;2023-04-19T03:16:49;12.10;91.80
47310;DHT22;33046;52.270;6.832;2023-04-19T03:18:55;12.00;91.50
47310;DHT22;33046;52.270;6.832;2023-04-19T03:21:07;12.10;91.80
47310;DHT22;33046;52.270;6.832;2023-04-19T03:23:24;12.10;91.70
47310;DHT22;33046;52.270;6.832;2023-04-19T03:25:31;12.00;91.70
47310;DHT22;33046;52.270;6.832;2023-04-19T03:27:51;12.10;91.70
47310;DHT22;33046;52.270;6.832;2023-04-19T03:30:13;12.00;91.00
47310;DHT22;33046;52.270;6.832;2023-04-19T03:32:22;12.00;91.00
47310;DHT22;33046;52.270;6.832;2023-04-19T03:34:29;12.00;91.00
47310;DHT22;33046;52.270;6.832;2023-04-19T03:36:37;12.00;91.20
47310;DHT22;33046;52.270;6.832;2023-04-19T03:38:44;11.90;90.50
47310;DHT22;33046;52.270;6.832;2023-04-19T03:40:56;12.00;90.40
47310;DHT22;33046;52.270;6.832;2023-04-19T03:43:06;12.00;90.30
47310;DHT22;33046;52.270;6.832;2023-04-19T03:45:13;12.00;90.10
47310;DHT22;33046;52.270;6.832;2023-04-19T03:47:25;12.00;90.00
47310;DHT22;33046;52.270;6.832;2023-04-19T03:49:35;12.00;90.20
47310;DHT22;33046;52.270;6.832;2023-04-19T03:51:45;12.00;89.90
47310;DHT22;33046;52.270;6.832;2023-04-19T03:53:52;12.00;89.90
47310;DHT22;33046;52.270;6.832;2023-04-19T03:55:58;12.00;88.70
47310;DHT22;33046;52.270;6.832;2023-04-19T03:58:05;12.00;87.00
47310;DHT22;33046;52.270;6.832;2023-04-19T04:00:24;12.00;87.90
47310;DHT22;33046;52.270;6.832;2023-04-19T04:02:36;12.00;85.90
47310;DHT22;33046;52.270;6.832;2023-04-19T04:04:44;12.00;86.10
47310;DHT22;33046;52.270;6.832;2023-04-19T04:06:53;11.90;84.40
47310;DHT22;33046;52.270;6.832;2023-04-19T04:09:00;12.00;84.90
47310;DHT22;33046;52.270;6.832;2023-04-19T04:11:07;12.00;85.10
47310;DHT22;33046;52.270;6.832;2023-04-19T04:13:14;12.00;84.70
47310;DHT22;33046;52.270;6.832;2023-04-19T04:15:29;12.00;85.20
47310;DHT22;33046;52.270;6.832;2023-04-19T04:17:36;11.90;82.60
47310;DHT22;33046;52.270;6.832;2023-04-19T04:19:45;11.90;83.60
47310;DHT22;33046;52.270;6.832;2023-04-19T04:21:53;11.90;82.90
47310;DHT22;33046;52.270;6.832;2023-04-19T04:24:00;11.80;81.40
47310;DHT22;33046;52.270;6.832;2023-04-19T04:26:16;11.80;81.80
47310;DHT22;33046;52.270;6.832;2023-04-19T04:28:35;11.90;81.80
47310;DHT22;33046;52.270;6.832;2023-04-19T04:30:42;11.80;81.40
47310;DHT22;33046;52.270;6.832;2023-04-19T04:32:51;11.80;80.50
47310;DHT22;33046;52.270;6.832;2023-04-19T04:34:58;11.80;83.10
47310;DHT22;33046;52.270;6.832;2023-04-19T04:37:15;11.80;82.60
47310;DHT22;33046;52.270;6.832;2023-04-19T04:39:22;11.70;79.60
47310;DHT22;33046;52.270;6.832;2023-04-19T04:41:29;11.70;81.00
47310;DHT22;33046;52.270;6.832;2023-04-19T04:43:36;11.70;79.80
47310;DHT22;33046;52.270;6.832;2023-04-19T04:45:43;11.60;78.40
47310;DHT22;33046;52.270;6.832;2023-04-19T04:47:50;11.50;77.50
47310;DHT22;33046;52.270;6.832;2023-04-19T04:49:58;11.60;79.00
47310;DHT22;33046;52.270;6.832;2023-04-19T04:52:04;11.60;78.20
47310;DHT22;33046;52.270;6.832;2023-04-19T04:54:18;11.60;78.70
47310;DHT22;33046;52.270;6.832;2023-04-19T04:56:26;11.60;78.10
47310;DHT22;33046;52.270;6.832;2023-04-19T04:58:33;11.60;76.90
47310;DHT22;33046;52.270;6.832;2023-04-19T05:00:43;11.60;75.90
47310;DHT22;33046;52.270;6.832;2023-04-19T05:02:50;11.60;78.00
47310;DHT22;33046;52.270;6.832;2023-04-19T05:04:57;11.60;76.00
47310;DHT22;33046;52.270;6.832;2023-04-19T05:07:05;11.60;77.60
47310;DHT22;33046;52.270;6.832;2023-04-19T05:09:12;11.60;76.50
47310;DHT22;33046;52.270;6.832;2023-04-19T05:11:20;11.60;74.40
47310;DHT22;33046;52.270;6.832;2023-04-19T05:13:27;11.60;76.50
47310;DHT22;33046;52.270;6.832;2023-04-19T05:15:34;11.60;75.00
47310;DHT22;33046;52.270;6.832;2023-04-19T05:17:43;11.60;74.70
47310;DHT22;33046;52.270;6.832;2023-04-19T05:19:51;11.50;75.60
47310;DHT22;33046;52.270;6.832;2023-04-19T05:21:59;11.50;75.30
47310;DHT22;33046;52.270;6.832;2023-04-19T05:24:06;11.50;74.90
47310;DHT22;33046;52.270;6.832;2023-04-19T05:26:14;11.50;74.60
47310;DHT22;33046;52.270;6.832;2023-04-19T05:28:22;11.30;72.50
47310;DHT22;33046;52.270;6.832;2023-04-19T05:30:40;11.30;75.20
47310;DHT22;33046;52.270;6.832;2023-04-19T05:32:47;11.30;73.50
47310;DHT22;33046;52.270;6.832;2023-04-19T05:34:56;11.30;73.60
47310;DHT22;33046;52.270;6.832;2023-04-19T05:37:03;11.30;73.90
47310;DHT22;33046;52.270;6.832;2023-04-19T05:39:12;11.20;74.30
47310;DHT22;33046;52.270;6.832;2023-04-19T05:41:19;11.30;74.10
47310;DHT22;33046;52.270;6.832;2023-04-19T05:43:27;11.30;74.30
47310;DHT22;33046;52.270;6.832;2023-04-19T05:45:34;11.30;74.40
47310;DHT22;33046;52.270;6.832;2023-04-19T05:47:41;11.20;73.80
47310;DHT22;33046;52.270;6.832;2023-04-19T05:50:11;11.30;74.40
47310;DHT22;33046;52.270;6.832;2023-04-19T05:52:24;11.30;74.10
47310;DHT22;33046;52.270;6.832;2023-04-19T05:54:34;11.30;74.40
47310;DHT22;33046;52.270;6.832;2023-04-19T05:56:41;11.40;74.50
47310;DHT22;33046;52.270;6.832;2023-04-19T05:58:49;11.50;75.00
47310;DHT22;33046;52.270;6.832;2023-04-19T06:00:56;11.50;74.60
47310;DHT22;33046;52.270;6.832;2023-04-19T06:03:03;11.50;74.50
47310;DHT22;33046;52.270;6.832;2023-04-19T06:05:10;11.60;74.10
47310;DHT22;33046;52.270;6.832;2023-04-19T06:07:18;11.60;73.90
47310;DHT22;33046;52.270;6.832;2023-04-19T06:09:32;11.60;74.30
47310;DHT22;33046;52.270;6.832;2023-04-19T06:11:40;11.60;74.20
47310;DHT22;33046;52.270;6.832;2023-04-19T06:13:54;11.60;73.00
47310;DHT22;33046;52.270;6.832;2023-04-19T06:16:01;11.70;72.40
47310;DHT22;33046;52.270;6.832;2023-04-19T06:18:08;11.60;72.10
47310;DHT22;33046;52.270;6.832;2023-04-19T06:20:15;11.70;74.30
47310;DHT22;33046;52.270;6.832;2023-04-19T06:22:21;11.70;71.60
47310;DHT22;33046;52.270;6.832;2023-04-19T06:24:28;11.70;71.40
47310;DHT22;33046;52.270;6.832;2023-04-19T06:26:35;11.80;73.00
47310;DHT22;33046;52.270;6.832;2023-04-19T06:28:42;11.80;73.50
47310;DHT22;33046;52.270;6.832;2023-04-19T06:30:50;11.90;72.60
47310;DHT22;33046;52.270;6.832;2023-04-19T06:32:56;11.90;72.30
47310;DHT22;33046;52.270;6.832;2023-04-19T06:35:05;12.00;73.70
47310;DHT22;33046;52.270;6.832;2023-04-19T06:37:12;12.10;72.40
47310;DHT22;33046;52.270;6.832;2023-04-19T06:39:19;12.10;71.40
47310;DHT22;33046;52.270;6.832;2023-04-19T06:41:26;12.20;72.50
47310;DHT22;33046;52.270;6.832;2023-04-19T06:43:33;12.40;72.10
47310;DHT22;33046;52.270;6.832;2023-04-19T06:45:40;12.50;71.80
47310;DHT22;33046;52.270;6.832;2023-04-19T06:47:48;12.60;71.50
47310;DHT22;33046;52.270;6.832;2023-04-19T06:49:55;12.70;71.50
47310;DHT22;33046;52.270;6.832;2023-04-19T06:52:02;12.80;70.50
47310;DHT22;33046;52.270;6.832;2023-04-19T06:54:08;12.80;69.70
47310;DHT22;33046;52.270;6.832;2023-04-19T06:56:15;13.00;69.80
47310;DHT22;33046;52.270;6.832;2023-04-19T06:58:22;13.10;69.40
47310;DHT22;33046;52.270;6.832;2023-04-19T07:00:29;13.20;69.60
47310;DHT22;33046;52.270;6.832;2023-04-19T07:02:36;13.20;68.50
47310;DHT22;33046;52.270;6.832;2023-04-19T07:04:44;13.30;68.30
47310;DHT22;33046;52.270;6.832;2023-04-19T07:06:51;13.40;68.50
47310;DHT22;33046;52.270;6.832;2023-04-19T07:08:58;13.40;67.70
47310;DHT22;33046;52.270;6.832;2023-04-19T07:11:04;13.40;67.00
47310;DHT22;33046;52.270;6.832;2023-04-19T07:13:11;13.50;67.30
47310;DHT22;33046;52.270;6.832;2023-04-19T07:15:18;13.50;68.00
47310;DHT22;33046;52.270;6.832;2023-04-19T07:17:25;13.50;69.30
47310;DHT22;33046;52.270;6.832;2023-04-19T07:19:32;13.50;69.40
47310;DHT22;33046;52.270;6.832;2023-04-19T07:21:40;13.60;68.20
47310;DHT22;33046;52.270;6.832;2023-04-19T07:23:47;13.50;68.10
47310;DHT22;33046;52.270;6.832;2023-04-19T07:25:54;13.50;67.60
47310;DHT22;33046;52.270;6.832;2023-04-19T07:28:00;13.60;68.50
47310;DHT22;33046;52.270;6.832;2023-04-19T07:30:08;13.60;67.30
47310;DHT22;33046;52.270;6.832;2023-04-19T07:32:15;13.60;69.00
47310;DHT22;33046;52.270;6.832;2023-04-19T07:34:22;13.60;68.90
47310;DHT22;33046;52.270;6.832;2023-04-19T07:36:28;13.60;69.50
47310;DHT22;33046;52.270;6.832;2023-04-19T07:38:37;13.60;67.60
47310;DHT22;33046;52.270;6.832;2023-04-19T07:40:43;13.60;67.90
47310;DHT22;33046;52.270;6.832;2023-04-19T07:42:50;13.60;69.30
47310;DHT22;33046;52.270;6.832;2023-04-19T07:44:57;13.50;67.40
47310;DHT22;33046;52.270;6.832;2023-04-19T07:47:04;13.50;68.30
47310;DHT22;33046;52.270;6.832;2023-04-19T07:49:10;13.50;68.20
47310;DHT22;33046;52.270;6.832;2023-04-19T07:51:17;13.50;67.40
47310;DHT22;33046;52.270;6.832;2023-04-19T07:53:24;13.60;66.90
47310;DHT22;33046;52.270;6.832;2023-04-19T07:55:32;13.50;68.30
47310;DHT22;33046;52.270;6.832;2023-04-19T07:57:39;13.50;67.30
47310;DHT22;33046;52.270;6.832;2023-04-19T07:59:46;13.50;66.20
47310;DHT22;33046;52.270;6.832;2023-04-19T08:01:53;13.50;66.70
47310;DHT22;33046;52.270;6.832;2023-04-19T08:03:59;13.50;68.10
47310;DHT22;33046;52.270;6.832;2023-04-19T08:06:07;13.50;68.20
47310;DHT22;33046;52.270;6.832;2023-04-19T08:08:14;13.60;68.70
47310;DHT22;33046;52.270;6.832;2023-04-19T08:10:20;13.60;68.50
47310;DHT22;33046;52.270;6.832;2023-04-19T08:12:29;13.70;68.30
47310;DHT22;33046;52.270;6.832;2023-04-19T08:14:40;13.70;68.60
47310;DHT22;33046;52.270;6.832;2023-04-19T08:16:53;13.70;68.20
47310;DHT22;33046;52.270;6.832;2023-04-19T08:19:03;13.70;68.00
47310;DHT22;33046;52.270;6.832;2023-04-19T08:21:09;13.80;66.90
47310;DHT22;33046;52.270;6.832;2023-04-19T08:23:16;13.70;65.10
47310;DHT22;33046;52.270;6.832;2023-04-19T08:25:26;13.70;65.10
47310;DHT22;33046;52.270;6.832;2023-04-19T08:27:36;13.60;65.70
47310;DHT22;33046;52.270;6.832;2023-04-19T08:29:43;13.70;67.60
47310;DHT22;33046;52.270;6.832;2023-04-19T08:31:49;13.70;68.20
47310;DHT22;33046;52.270;6.832;2023-04-19T08:33:56;13.80;67.90
47310;DHT22;33046;52.270;6.832;2023-04-19T08:36:03;13.80;67.50
47310;DHT22;33046;52.270;6.832;2023-04-19T08:38:10;13.80;64.00
47310;DHT22;33046;52.270;6.832;2023-04-19T08:40:17;13.80;63.30
47310;DHT22;33046;52.270;6.832;2023-04-19T08:42:24;13.80;64.50
47310;DHT22;33046;52.270;6.832;2023-04-19T08:44:40;13.80;62.70
47310;DHT22;33046;52.270;6.832;2023-04-19T08:46:56;13.80;62.80
47310;DHT22;33046;52.270;6.832;2023-04-19T08:49:04;13.90;64.70
47310;DHT22;33046;52.270;6.832;2023-04-19T08:51:11;13.90;63.50
47310;DHT22;33046;52.270;6.832;2023-04-19T08:53:18;13.90;64.70
47310;DHT22;33046;52.270;6.832;2023-04-19T08:55:29;13.90;64.70
47310;DHT22;33046;52.270;6.832;2023-04-19T08:57:37;14.00;66.30
47310;DHT22;33046;52.270;6.832;2023-04-19T08:59:45;14.10;64.50
47310;DHT22;33046;52.270;6.832;2023-04-19T09:01:52;14.10;65.50
47310;DHT22;33046;52.270;6.832;2023-04-19T09:03:58;14.20;64.60
47310;DHT22;33046;52.270;6.832;2023-04-19T09:06:12;14.20;67.00
47310;DHT22;33046;52.270;6.832;2023-04-19T09:08:20;14.20;62.00
47310;DHT22;33046;52.270;6.832;2023-04-19T09:10:27;14.20;61.50
47310;DHT22;33046;52.270;6.832;2023-04-19T09:12:34;14.20;60.50
47310;DHT22;33046;52.270;6.832;2023-04-19T09:14:45;14.30;62.80
47310;DHT22;33046;52.270;6.832;2023-04-19T09:17:11;14.30;60.70
47310;DHT22;33046;52.270;6.832;2023-04-19T09:19:18;14.30;62.40
47310;DHT22;33046;52.270;6.832;2023-04-19T09:21:30;14.40;60.60
47310;DHT22;33046;52.270;6.832;2023-04-19T09:23:45;14.40;62.80
47310;DHT22;33046;52.270;6.832;2023-04-19T09:25:53;14.60;63.40
47310;DHT22;33046;52.270;6.832;2023-04-19T09:28:20;14.60;65.00
47310;DHT22;33046;52.270;6.832;2023-04-19T09:30:28;14.50;62.30
47310;DHT22;33046;52.270;6.832;2023-04-19T09:32:47;14.50;60.20
47310;DHT22;33046;52.270;6.832;2023-04-19T09:34:55;14.60;61.60
47310;DHT22;33046;52.270;6.832;2023-04-19T09:37:11;14.60;61.60
47310;DHT22;33046;52.270;6.832;2023-04-19T09:39:30;14.60;60.70
47310;DHT22;33046;52.270;6.832;2023-04-19T09:41:50;14.70;60.60
47310;DHT22;33046;52.270;6.832;2023-04-19T09:44:08;14.70;60.80
47310;DHT22;33046;52.270;6.832;2023-04-19T09:46:37;14.60;59.40
47310;DHT22;33046;52.270;6.832;2023-04-19T09:48:44;14.70;55.80
47310;DHT22;33046;52.270;6.832;2023-04-19T09:50:52;14.80;60.40
47310;DHT22;33046;52.270;6.832;2023-04-19T09:53:01;14.80;59.00
47310;DHT22;33046;52.270;6.832;2023-04-19T09:55:08;14.80;57.50
47310;DHT22;33046;52.270;6.832;2023-04-19T09:57:20;14.90;59.20
47310;DHT22;33046;52.270;6.832;2023-04-19T09:59:26;14.90;56.00
47310;DHT22;33046;52.270;6.832;2023-04-19T10:01:38;14.80;56.30
47310;DHT22;33046;52.270;6.832;2023-04-19T10:03:48;14.90;55.80
47310;DHT22;33046;52.270;6.832;2023-04-19T10:05:55;14.90;56.70
47310;DHT22;33046;52.270;6.832;2023-04-19T10:08:03;15.00;56.40
47310;DHT22;33046;52.270;6.832;2023-04-19T10:10:14;14.90;53.40
47310;DHT22;33046;52.270;6.832;2023-04-19T10:12:26;14.90;54.30
47310;DHT22;33046;52.270;6.832;2023-04-19T10:14:36;15.00;55.30
47310;DHT22;33046;52.270;6.832;2023-04-19T10:16:46;15.00;54.20
47310;DHT22;33046;52.270;6.832;2023-04-19T10:18:53;15.10;54.00
47310;DHT22;33046;52.270;6.832;2023-04-19T10:21:05;15.20;52.70
47310;DHT22;33046;52.270;6.832;2023-04-19T10:23:12;15.10;52.30
47310;DHT22;33046;52.270;6.832;2023-04-19T10:25:27;15.20;52.30
47310;DHT22;33046;52.270;6.832;2023-04-19T10:27:34;15.20;52.70
47310;DHT22;33046;52.270;6.832;2023-04-19T10:29:57;15.20;53.00
47310;DHT22;33046;52.270;6.832;2023-04-19T10:32:06;15.20;53.10
47310;DHT22;33046;52.270;6.832;2023-04-19T10:34:12;15.30;52.60
47310;DHT22;33046;52.270;6.832;2023-04-19T10:36:20;15.40;53.00
47310;DHT22;33046;52.270;6.832;2023-04-19T10:38:38;15.50;54.60
47310;DHT22;33046;52.270;6.832;2023-04-19T10:40:58;15.30;52.70
47310;DHT22;33046;52.270;6.832;2023-04-19T10:43:15;15.30;51.30
47310;DHT22;33046;52.270;6.832;2023-04-19T10:45:31;15.50;53.10
47310;DHT22;33046;52.270;6.832;2023-04-19T10:47:43;15.50;53.50
47310;DHT22;33046;52.270;6.832;2023-04-19T10:49:50;15.60;52.90
47310;DHT22;33046;52.270;6.832;2023-04-19T10:51:57;15.50;52.90
47310;DHT22;33046;52.270;6.832;2023-04-19T10:54:04;15.50;51.70
47310;DHT22;33046;52.270;6.832;2023-04-19T10:56:11;15.40;52.70
47310;DHT22;33046;52.270;6.832;2023-04-19T10:58:18;15.50;54.00
47310;DHT22;33046;52.270;6.832;2023-04-19T11:00:25;15.70;54.40
47310;DHT22;33046;52.270;6.832;2023-04-19T11:02:32;15.70;55.00
47310;DHT22;33046;52.270;6.832;2023-04-19T11:05:00;15.70;53.40
47310;DHT22;33046;52.270;6.832;2023-04-19T11:07:07;15.60;51.30
47310;DHT22;33046;52.270;6.832;2023-04-19T11:09:21;15.50;51.50
47310;DHT22;33046;52.270;6.832;2023-04-19T11:11:28;15.50;52.80
47310;DHT22;33046;52.270;6.832;2023-04-19T11:13:35;15.50;53.00
47310;DHT22;33046;52.270;6.832;2023-04-19T11:15:43;15.60;53.10
47310;DHT22;33046;52.270;6.832;2023-04-19T11:17:50;15.70;54.10
47310;DHT22;33046;52.270;6.832;2023-04-19T11:20:03;15.70;53.70
47310;DHT22;33046;52.270;6.832;2023-04-19T11:22:11;15.80;55.40
47310;DHT22;33046;52.270;6.832;2023-04-19T11:24:18;15.90;54.90
47310;DHT22;33046;52.270;6.832;2023-04-19T11:26:25;15.80;52.60
47310;DHT22;33046;52.270;6.832;2023-04-19T11:28:32;15.90;54.20
47310;DHT22;33046;52.270;6.832;2023-04-19T11:30:39;15.80;52.20
47310;DHT22;33046;52.270;6.832;2023-04-19T11:32:47;15.90;51.20
47310;DHT22;33046;52.270;6.832;2023-04-19T11:34:55;15.90;49.50
47310;DHT22;33046;52.270;6.832;2023-04-19T11:37:03;16.00;50.10
47310;DHT22;33046;52.270;6.832;2023-04-19T11:39:10;16.10;51.40
47310;DHT22;33046;52.270;6.832;2023-04-19T11:41:16;16.00;50.60
47310;DHT22;33046;52.270;6.832;2023-04-19T11:43:23;16.00;49.90
47310;DHT22;33046;52.270;6.832;2023-04-19T11:45:37;16.10;49.20
47310;DHT22;33046;52.270;6.832;2023-04-19T11:47:48;16.10;48.80
47310;DHT22;33046;52.270;6.832;2023-04-19T11:49:55;16.20;49.30
47310;DHT22;33046;52.270;6.832;2023-04-19T11:52:05;16.30;50.30
47310;DHT22;33046;52.270;6.832;2023-04-19T11:54:12;16.20;48.70
47310;DHT22;33046;52.270;6.832;2023-04-19T11:56:19;16.30;49.70
47310;DHT22;33046;52.270;6.832;2023-04-19T11:58:27;16.40;50.10
47310;DHT22;33046;52.270;6.832;2023-04-19T12:00:34;16.50;50.70
47310;DHT22;33046;52.270;6.832;2023-04-19T12:02:42;16.50;48.80
47310;DHT22;33046;52.270;6.832;2023-04-19T12:04:50;16.50;49.90
47310;DHT22;33046;52.270;6.832;2023-04-19T12:06:58;16.50;52.20
47310;DHT22;33046;52.270;6.832;2023-04-19T12:09:07;16.40;48.50
47310;DHT22;33046;52.270;6.832;2023-04-19T12:11:15;16.50;49.30
47310;DHT22;33046;52.270;6.832;2023-04-19T12:13:23;16.50;49.50
47310;DHT22;33046;52.270;6.832;2023-04-19T12:15:40;16.50;49.20
47310;DHT22;33046;52.270;6.832;2023-04-19T12:17:57;16.40;50.40
47310;DHT22;33046;52.270;6.832;2023-04-19T12:20:06;16.50;50.20
47310;DHT22;33046;52.270;6.832;2023-04-19T12:22:14;16.50;53.30
47310;DHT22;33046;52.270;6.832;2023-04-19T12:24:22;16.40;50.10
47310;DHT22;33046;52.270;6.832;2023-04-19T12:26:29;16.40;51.50
47310;DHT22;33046;52.270;6.832;2023-04-19T12:28:36;16.50;51.90
47310;DHT22;33046;52.270;6.832;2023-04-19T12:30:43;16.50;51.70
47310;DHT22;33046;52.270;6.832;2023-04-19T12:32:50;16.50;50.30
47310;DHT22;33046;52.270;6.832;2023-04-19T12:34:57;16.60;51.00
47310;DHT22;33046;52.270;6.832;2023-04-19T12:37:03;16.50;49.90
47310;DHT22;33046;52.270;6.832;2023-04-19T12:39:10;16.50;49.60
47310;DHT22;33046;52.270;6.832;2023-04-19T12:41:18;16.50;51.20
47310;DHT22;33046;52.270;6.832;2023-04-19T12:43:25;16.50;49.60
47310;DHT22;33046;52.270;6.832;2023-04-19T12:45:32;16.60;52.80
47310;DHT22;33046;52.270;6.832;2023-04-19T12:47:39;16.60;51.30
47310;DHT22;33046;52.270;6.832;2023-04-19T12:49:46;16.50;51.00
47310;DHT22;33046;52.270;6.832;2023-04-19T12:51:53;16.70;51.60
47310;DHT22;33046;52.270;6.832;2023-04-19T12:54:01;16.80;52.70
47310;DHT22;33046;52.270;6.832;2023-04-19T12:56:08;16.80;52.30
47310;DHT22;33046;52.270;6.832;2023-04-19T12:58:17;16.90;52.20
47310;DHT22;33046;52.270;6.832;2023-04-19T13:00:24;16.90;51.20
47310;DHT22;33046;52.270;6.832;2023-04-19T13:02:30;16.90;51.70
47310;DHT22;33046;52.270;6.832;2023-04-19T13:04:39;16.90;52.20
47310;DHT22;33046;52.270;6.832;2023-04-19T13:06:46;16.90;52.30
47310;DHT22;33046;52.270;6.832;2023-04-19T13:08:53;16.80;50.60
47310;DHT22;33046;52.270;6.832;2023-04-19T13:11:00;16.70;50.50
47310;DHT22;33046;52.270;6.832;2023-04-19T13:13:07;16.80;51.20
47310;DHT22;33046;52.270;6.832;2023-04-19T13:15:15;16.80;50.90
47310;DHT22;33046;52.270;6.832;2023-04-19T13:17:22;16.80;52.60
47310;DHT22;33046;52.270;6.832;2023-04-19T13:19:28;16.70;52.60
47310;DHT22;33046;52.270;6.832;2023-04-19T13:21:35;16.70;51.90
47310;DHT22;33046;52.270;6.832;2023-04-19T13:23:43;16.80;51.10
47310;DHT22;33046;52.270;6.832;2023-04-19T13:25:49;16.80;51.30
47310;DHT22;33046;52.270;6.832;2023-04-19T13:27:56;16.80;52.40
47310;DHT22;33046;52.270;6.832;2023-04-19T13:30:03;16.80;51.50
47310;DHT22;33046;52.270;6.832;2023-04-19T13:32:12;16.90;51.00